Okeene, Oklahoma
Current Conditions -  °F | °C
As of 10:15 AM on Friday 19 Dec 2014 (Local Time) from KJWG Reporting Station
Haze Haze  
Wind Chill: 32°   Ceiling: 600
Heat Index: 36°   Visibility: 5mi
Dew Point: 36°   Wind: 5mph
Humidity: 100%   Direction: 20°NNE
Pressure: 30.25"   Gusts: NA
Location:  36.12°N, 98.32°W
Report Text: KJWG 191615Z AUTO 02004KT 5SM BR BKN006 BKN020 OVC028 02/02 A3025 RMK AO2 T00210021 TSNO
Loading
Personal Weather Stations






























Interactive Weather Map New forecast layout! Learn more

10-Day Weather Forecast

Advertisements
Track Severe Weather on mobile